createdAt,value
2019-04-16T00:02:28.105Z,7.38
2019-04-16T00:05:09.892Z,7.38
2019-04-16T00:07:56.483Z,7.30
2019-04-16T00:10:52.087Z,7.39
2019-04-16T00:13:34.769Z,7.27
2019-04-16T00:16:05.433Z,7.22
2019-04-16T00:18:35.875Z,7.15
2019-04-16T00:21:25.138Z,7.12
2019-04-16T00:24:18.516Z,7.05
2019-04-16T00:26:52.509Z,6.96
2019-04-16T00:29:22.908Z,6.97
2019-04-16T00:32:00.284Z,6.94
2019-04-16T00:34:30.699Z,6.99
2019-04-16T00:37:01.236Z,7.00
2019-04-16T00:39:31.632Z,6.96
2019-04-16T00:42:02.075Z,6.99
2019-04-16T00:44:32.510Z,6.96
2019-04-16T00:47:02.951Z,6.95
2019-04-16T00:49:33.405Z,6.89
2019-04-16T00:52:06.676Z,6.87
2019-04-16T00:54:36.078Z,6.85
2019-04-16T00:57:06.657Z,6.79
2019-04-16T00:59:37.122Z,6.68
2019-04-16T01:02:26.747Z,6.71
2019-04-16T01:04:57.135Z,6.69
2019-04-16T01:07:27.536Z,6.69
2019-04-16T01:09:58.002Z,6.67
2019-04-16T01:12:28.500Z,6.69
2019-04-16T01:15:00.563Z,6.68
2019-04-16T01:17:33.402Z,6.65
2019-04-16T01:20:03.096Z,6.65
2019-04-16T01:22:33.490Z,6.71
2019-04-16T01:25:03.921Z,6.67
2019-04-16T01:27:37.740Z,6.62
2019-04-16T01:30:10.148Z,6.56
2019-04-16T01:33:05.823Z,6.58
2019-04-16T01:35:55.352Z,6.61
2019-04-16T01:38:49.565Z,6.63
2019-04-16T01:41:21.950Z,6.60
2019-04-16T01:43:54.352Z,6.58
2019-04-16T01:46:24.391Z,6.56
2019-04-16T01:48:54.683Z,6.46
2019-04-16T01:51:25.164Z,6.44
2019-04-16T01:53:55.593Z,6.43
2019-04-16T01:56:28.849Z,6.42
2019-04-16T01:58:58.183Z,6.35
2019-04-16T02:01:28.627Z,6.29
2019-04-16T02:03:59.095Z,6.33
2019-04-16T02:06:29.585Z,6.26
2019-04-16T02:09:02.775Z,6.16
2019-04-16T02:11:32.080Z,6.19
2019-04-16T02:14:02.691Z,6.16
2019-04-16T02:16:33.179Z,6.17
2019-04-16T02:19:03.652Z,6.09
2019-04-16T02:21:34.095Z,5.96
2019-04-16T02:24:04.588Z,5.94
2019-04-16T02:26:34.936Z,5.85
2019-04-16T02:29:05.485Z,5.81
2019-04-16T02:31:35.892Z,5.80
2019-04-16T02:34:06.622Z,5.76
2019-04-16T02:36:37.072Z,5.67
2019-04-16T02:39:09.976Z,5.72
2019-04-16T02:41:40.236Z,5.69
2019-04-16T02:44:14.029Z,5.65
2019-04-16T02:46:42.793Z,5.58
2019-04-16T02:49:13.141Z,5.56
2019-04-16T02:52:05.502Z,5.61
2019-04-16T02:54:49.861Z,5.63
2019-04-16T02:57:59.588Z,5.64
2019-04-16T03:00:35.520Z,5.60
2019-04-16T03:03:12.297Z,5.58
2019-04-16T03:05:45.866Z,5.71
2019-04-16T03:08:16.198Z,5.70
2019-04-16T03:10:46.783Z,5.72
2019-04-16T03:13:17.084Z,5.73
2019-04-16T03:15:59.195Z,5.72
2019-04-16T03:18:37.831Z,5.76
2019-04-16T03:21:08.291Z,5.73
2019-04-16T03:23:38.791Z,5.70
2019-04-16T03:26:09.218Z,5.64
2019-04-16T03:28:39.540Z,5.48
2019-04-16T03:31:20.273Z,5.41
2019-04-16T03:33:48.548Z,5.42
2019-04-16T03:36:14.306Z,5.44
2019-04-16T03:38:44.807Z,5.39
2019-04-16T03:41:15.272Z,5.36
2019-04-16T03:43:45.821Z,5.32
2019-04-16T03:46:16.374Z,5.34
2019-04-16T03:48:46.679Z,5.36
2019-04-16T03:51:17.262Z,5.28
2019-04-16T03:53:49.736Z,5.27
2019-04-16T03:56:19.783Z,5.11
2019-04-16T03:58:50.255Z,5.10
2019-04-16T04:01:20.627Z,5.12
2019-04-16T04:03:50.906Z,5.12
2019-04-16T04:06:21.336Z,5.20
2019-04-16T04:08:53.297Z,5.16
2019-04-16T04:11:23.873Z,5.12
2019-04-16T04:13:54.230Z,5.09
2019-04-16T04:16:24.668Z,5.11
2019-04-16T04:18:55.105Z,5.08
2019-04-16T04:21:25.593Z,5.02
2019-04-16T04:23:57.568Z,5.08
2019-04-16T04:26:28.186Z,5.07
2019-04-16T04:28:58.661Z,4.98
2019-04-16T04:31:32.091Z,5.01
2019-04-16T04:34:01.225Z,5.01
2019-04-16T04:36:31.682Z,4.97
2019-04-16T04:39:02.099Z,4.97
2019-04-16T04:41:32.478Z,4.94
2019-04-16T04:44:04.444Z,4.87
2019-04-16T04:46:35.022Z,4.90
2019-04-16T04:49:05.411Z,4.94
2019-04-16T04:51:36.870Z,4.96
2019-04-16T04:54:07.902Z,5.13
2019-04-16T04:56:38.355Z,5.15
2019-04-16T04:59:08.734Z,5.20
2019-04-16T05:01:42.079Z,5.25
2019-04-16T05:04:26.994Z,5.28
2019-04-16T05:07:00.134Z,5.33
2019-04-16T05:09:35.538Z,5.40
2019-04-16T05:12:02.631Z,5.46
2019-04-16T05:14:33.067Z,5.51
2019-04-16T05:17:15.450Z,5.58
2019-04-16T05:19:45.849Z,5.64
2019-04-16T05:22:20.596Z,5.74
2019-04-16T05:24:48.389Z,5.81
2019-04-16T05:27:18.833Z,5.90
2019-04-16T05:29:49.675Z,6.03
2019-04-16T05:32:20.048Z,6.07
2019-04-16T05:34:50.533Z,6.09
2019-04-16T05:37:21.319Z,6.25
2019-04-16T05:39:51.701Z,6.30
2019-04-16T05:42:25.243Z,6.37
2019-04-16T05:44:54.411Z,6.46
2019-04-16T05:47:25.137Z,6.61
2019-04-16T05:49:58.066Z,6.75
2019-04-16T05:52:27.756Z,6.80
2019-04-16T05:55:06.878Z,6.96
2019-04-16T05:57:39.353Z,7.00
2019-04-16T06:00:20.625Z,7.11
2019-04-16T06:02:51.027Z,7.29
2019-04-16T06:05:21.709Z,7.42
2019-04-16T06:07:55.161Z,7.56
2019-04-16T06:10:25.490Z,7.59
2019-04-16T06:13:12.682Z,7.72
2019-04-16T06:16:00.987Z,7.95
2019-04-16T06:18:44.224Z,7.95
2019-04-16T06:21:31.012Z,8.04
2019-04-16T06:24:11.498Z,8.04
2019-04-16T06:27:00.847Z,7.98
2019-04-16T06:29:53.206Z,7.90
2019-04-16T06:32:42.845Z,8.10
2019-04-16T06:35:43.582Z,8.21
2019-04-16T06:38:35.188Z,8.13
2019-04-16T06:41:10.616Z,8.01
2019-04-16T06:43:47.605Z,8.16
2019-04-16T06:46:34.103Z,8.34
2019-04-16T06:49:22.408Z,8.40
2019-04-16T06:52:18.104Z,8.56
2019-04-16T06:55:00.483Z,8.66
2019-04-16T06:58:03.282Z,8.63
2019-04-16T07:00:52.617Z,8.80
2019-04-16T07:03:41.901Z,9.09
2019-04-16T07:06:29.793Z,9.35
2019-04-16T07:09:23.300Z,9.63
2019-04-16T07:11:54.492Z,9.96
2019-04-16T07:14:24.045Z,10.16
2019-04-16T07:16:59.837Z,10.26
2019-04-16T07:19:26.816Z,10.64
2019-04-16T07:21:57.302Z,11.04
2019-04-16T07:24:30.778Z,11.41
2019-04-16T07:27:00.128Z,11.95
2019-04-16T07:29:34.324Z,12.39
2019-04-16T07:32:22.222Z,12.54
2019-04-16T07:35:09.808Z,12.77
2019-04-16T07:37:55.794Z,12.80
2019-04-16T07:41:03.439Z,12.88
2019-04-16T07:43:41.392Z,13.28
2019-04-16T07:46:47.048Z,13.55
2019-04-16T07:49:48.733Z,13.88
2019-04-16T07:52:44.026Z,13.51
2019-04-16T07:55:23.627Z,14.17
2019-04-16T07:57:53.495Z,14.34
2019-04-16T08:00:24.188Z,14.52
2019-04-16T08:02:54.822Z,15.05
2019-04-16T08:05:27.886Z,14.74
2019-04-16T08:07:57.445Z,14.77
2019-04-16T08:10:27.843Z,15.57
2019-04-16T08:13:06.849Z,15.71
2019-04-16T08:15:37.318Z,15.79
2019-04-16T08:18:10.887Z,15.74
2019-04-16T08:20:41.331Z,16.43
2019-04-16T08:23:29.267Z,17.19
2019-04-16T08:26:03.955Z,16.70
2019-04-16T08:28:32.500Z,17.17
2019-04-16T08:31:03.987Z,16.48
2019-04-16T08:33:34.263Z,17.09
2019-04-16T08:36:04.660Z,17.07
2019-04-16T08:38:35.149Z,17.00
2019-04-16T08:41:05.692Z,17.42
2019-04-16T08:43:36.100Z,17.45
2019-04-16T08:46:10.237Z,17.40
2019-04-16T08:48:38.909Z,17.58
2019-04-16T08:51:09.356Z,17.11
2019-04-16T08:53:39.821Z,16.35
2019-04-16T08:56:10.250Z,16.95
2019-04-16T08:58:40.604Z,16.55
2019-04-16T09:01:15.455Z,16.89
2019-04-16T09:03:45.138Z,16.95
2019-04-16T09:06:15.578Z,17.48
2019-04-16T09:09:14.453Z,18.13
2019-04-16T09:11:42.522Z,19.32
2019-04-16T09:14:13.022Z,20.03
2019-04-16T09:17:02.339Z,20.01
2019-04-16T09:19:32.923Z,20.10
2019-04-16T09:22:03.534Z,19.93
2019-04-16T09:24:41.388Z,20.40
2019-04-16T09:27:28.734Z,20.41
2019-04-16T09:30:18.141Z,20.92
2019-04-16T09:33:16.479Z,20.83
2019-04-16T09:36:08.783Z,19.96
2019-04-16T09:38:47.648Z,20.55
2019-04-16T09:41:43.040Z,21.44
2019-04-16T09:44:13.476Z,21.79
2019-04-16T09:46:51.255Z,22.09
2019-04-16T09:49:16.099Z,21.49
2019-04-16T09:51:46.474Z,21.46
2019-04-16T09:54:16.792Z,20.81
2019-04-16T09:56:47.317Z,21.67
2019-04-16T09:59:37.646Z,22.41
2019-04-16T10:02:20.265Z,22.40
2019-04-16T10:04:50.586Z,22.99
2019-04-16T10:07:20.960Z,23.08
2019-04-16T10:09:54.388Z,23.17
2019-04-16T10:12:23.623Z,22.99
2019-04-16T10:14:53.908Z,23.48
2019-04-16T10:17:24.318Z,23.83
2019-04-16T10:19:54.779Z,23.91
2019-04-16T10:22:25.162Z,23.42
2019-04-16T10:25:12.878Z,23.10
2019-04-16T10:27:45.356Z,23.13
2019-04-16T10:30:19.712Z,23.42
2019-04-16T10:32:50.075Z,24.53
2019-04-16T10:35:20.772Z,25.28
2019-04-16T10:37:51.279Z,26.07
2019-04-16T10:40:39.216Z,26.56
2019-04-16T10:43:27.541Z,26.83
2019-04-16T10:46:19.942Z,26.51
2019-04-16T10:49:14.178Z,26.44
2019-04-16T10:52:06.753Z,26.68
2019-04-16T10:54:59.218Z,27.26
2019-04-16T10:57:41.644Z,27.17
2019-04-16T11:00:29.740Z,27.89
2019-04-16T11:03:19.278Z,28.65
2019-04-16T11:06:14.664Z,27.31
2019-04-16T11:08:45.137Z,26.92
2019-04-16T11:11:15.621Z,26.53
2019-04-16T11:13:59.340Z,26.40
2019-04-16T11:16:19.873Z,27.13
2019-04-16T11:18:50.274Z,27.59
2019-04-16T11:21:21.108Z,27.84
2019-04-16T11:23:51.603Z,28.02
2019-04-16T11:26:21.922Z,27.64
2019-04-16T11:28:52.342Z,26.16
2019-04-16T11:31:23.510Z,26.11
2019-04-16T11:33:53.764Z,26.92
2019-04-16T11:36:24.225Z,26.91
2019-04-16T11:38:54.617Z,26.92
2019-04-16T11:41:25.088Z,26.94
2019-04-16T11:43:55.492Z,27.37
2019-04-16T11:46:26.076Z,27.44
2019-04-16T11:48:56.393Z,27.39
2019-04-16T11:51:28.406Z,26.16
2019-04-16T11:53:58.920Z,26.30
2019-04-16T11:56:29.356Z,25.85
2019-04-16T11:58:59.767Z,25.33
2019-04-16T12:01:37.068Z,24.73
2019-04-16T12:04:18.548Z,24.75
2019-04-16T12:07:16.638Z,25.17
2019-04-16T12:10:04.581Z,26.20
2019-04-16T12:12:50.813Z,26.31
2019-04-16T12:15:36.615Z,24.94
2019-04-16T12:18:21.350Z,24.83
2019-04-16T12:21:19.527Z,25.00
2019-04-16T12:23:56.877Z,24.90
2019-04-16T12:26:47.637Z,23.99
2019-04-16T12:29:34.122Z,24.94
2019-04-16T12:32:26.894Z,26.19
2019-04-16T12:35:18.155Z,25.37
2019-04-16T12:38:11.944Z,25.88
2019-04-16T12:40:50.413Z,26.30
2019-04-16T12:43:42.541Z,28.12
2019-04-16T12:46:31.284Z,29.19
2019-04-16T12:49:29.413Z,29.72
2019-04-16T12:52:17.805Z,30.77
2019-04-16T12:55:16.273Z,29.48
2019-04-16T12:58:12.704Z,31.21
2019-04-16T13:01:05.238Z,32.42
2019-04-16T13:03:52.304Z,32.97
2019-04-16T13:06:32.127Z,33.34
2019-04-16T13:09:20.354Z,33.46
2019-04-16T13:12:22.116Z,32.50
2019-04-16T13:15:17.235Z,31.23
2019-04-16T13:18:15.587Z,32.36
2019-04-16T13:21:01.009Z,31.83
2019-04-16T13:23:39.221Z,29.22
2019-04-16T13:26:13.912Z,28.84
2019-04-16T13:28:44.533Z,29.31
2019-04-16T13:31:14.957Z,29.82
2019-04-16T13:33:46.114Z,30.03
2019-04-16T13:36:17.271Z,28.99
2019-04-16T13:38:53.181Z,28.10
2019-04-16T13:41:26.302Z,27.02
2019-04-16T13:44:00.414Z,26.21
2019-04-16T13:46:32.899Z,25.40
2019-04-16T13:49:24.390Z,25.21
2019-04-16T13:51:57.242Z,24.89
2019-04-16T13:54:44.992Z,23.87
2019-04-16T13:57:17.708Z,23.19
2019-04-16T14:00:06.946Z,22.86
2019-04-16T14:02:51.092Z,22.54
2019-04-16T14:05:21.765Z,22.49
2019-04-16T14:07:52.172Z,22.12
2019-04-16T14:10:22.984Z,22.11
2019-04-16T14:12:53.347Z,22.06
2019-04-16T14:15:32.443Z,21.86
2019-04-16T14:17:59.781Z,22.13
2019-04-16T14:20:29.767Z,22.57
2019-04-16T14:23:00.569Z,22.75
2019-04-16T14:25:31.000Z,22.75
2019-04-16T14:28:03.525Z,22.53
2019-04-16T14:30:42.866Z,22.31
2019-04-16T14:33:16.417Z,22.39
2019-04-16T14:35:46.799Z,22.33
2019-04-16T14:38:21.262Z,22.15
2019-04-16T14:40:51.716Z,21.92
2019-04-16T14:43:29.454Z,21.83
2019-04-16T14:46:00.175Z,21.36
2019-04-16T14:48:32.652Z,21.13
2019-04-16T14:51:03.087Z,20.58
2019-04-16T14:53:51.166Z,20.35
2019-04-16T14:56:40.872Z,20.16
2019-04-16T14:59:29.951Z,19.97
2019-04-16T15:02:09.497Z,19.77
2019-04-16T15:04:58.301Z,19.73
2019-04-16T15:07:39.167Z,19.52
2019-04-16T15:10:31.697Z,19.41
2019-04-16T15:13:21.071Z,19.36
2019-04-16T15:16:13.203Z,19.16
2019-04-16T15:19:01.757Z,19.34
2019-04-16T15:21:50.122Z,19.44
2019-04-16T15:24:39.417Z,19.38
2019-04-16T15:27:31.674Z,19.47
2019-04-16T15:30:16.151Z,19.59
2019-04-16T15:33:06.809Z,19.59
2019-04-16T15:35:43.735Z,19.51
2019-04-16T15:38:30.463Z,19.34
2019-04-16T15:41:17.601Z,19.32
2019-04-16T15:44:06.979Z,19.32
2019-04-16T15:47:00.231Z,19.58
2019-04-16T15:49:43.294Z,20.05
2019-04-16T15:52:35.761Z,20.78
2019-04-16T15:55:43.816Z,21.16
2019-04-16T15:58:45.328Z,21.93
2019-04-16T16:01:40.461Z,22.44
2019-04-16T16:04:14.219Z,22.59
2019-04-16T16:07:12.823Z,22.95
2019-04-16T16:09:59.722Z,23.10
2019-04-16T16:12:32.011Z,22.28
2019-04-16T16:15:07.639Z,21.77
2019-04-16T16:17:34.607Z,20.93
2019-04-16T16:20:09.671Z,20.23
2019-04-16T16:22:38.084Z,19.72
2019-04-16T16:25:08.919Z,19.47
2019-04-16T16:27:43.908Z,19.16
2019-04-16T16:30:14.379Z,19.05
2019-04-16T16:32:43.955Z,18.93
2019-04-16T16:35:16.965Z,18.81
2019-04-16T16:37:46.420Z,18.59
2019-04-16T16:40:16.860Z,18.53
2019-04-16T16:42:47.322Z,18.37
2019-04-16T16:45:19.463Z,18.29
2019-04-16T16:47:49.835Z,18.11
2019-04-16T16:50:20.401Z,18.04
2019-04-16T16:53:15.406Z,18.05
2019-04-16T16:55:48.481Z,17.89
2019-04-16T16:58:37.839Z,17.70
2019-04-16T17:01:25.869Z,17.67
2019-04-16T17:04:02.557Z,17.67
2019-04-16T17:06:32.948Z,17.63
2019-04-16T17:09:03.332Z,17.58
2019-04-16T17:11:33.707Z,17.54
2019-04-16T17:14:04.133Z,17.50
2019-04-16T17:16:34.729Z,17.33
2019-04-16T17:19:05.000Z,17.32
2019-04-16T17:21:35.455Z,17.30
2019-04-16T17:24:05.910Z,17.23
2019-04-16T17:26:37.372Z,17.06
2019-04-16T17:29:07.891Z,16.94
2019-04-16T17:31:38.371Z,16.86
2019-04-16T17:34:08.903Z,16.80
2019-04-16T17:36:39.326Z,16.72
2019-04-16T17:39:10.897Z,16.69
2019-04-16T17:41:50.683Z,16.52
2019-04-16T17:44:38.077Z,16.38
2019-04-16T17:47:32.116Z,16.31
2019-04-16T17:50:02.498Z,16.23
2019-04-16T17:52:48.475Z,16.12
2019-04-16T17:55:32.922Z,15.97
2019-04-16T17:58:12.328Z,15.80
2019-04-16T18:01:00.145Z,15.53
2019-04-16T18:03:52.717Z,15.56
2019-04-16T18:06:49.292Z,15.49
2019-04-16T18:09:30.636Z,15.48
2019-04-16T18:12:25.842Z,15.38
2019-04-16T18:15:16.897Z,15.21
2019-04-16T18:18:01.653Z,15.10
2019-04-16T18:21:02.365Z,15.00
2019-04-16T18:23:52.061Z,14.92
2019-04-16T18:26:37.529Z,14.65
2019-04-16T18:29:15.371Z,14.53
2019-04-16T18:32:21.177Z,14.44
2019-04-16T18:34:59.127Z,14.35
2019-04-16T18:37:39.704Z,14.31
2019-04-16T18:40:24.145Z,14.32
2019-04-16T18:43:19.681Z,14.33
2019-04-16T18:46:09.071Z,14.30
2019-04-16T18:48:44.614Z,14.31
2019-04-16T18:51:13.400Z,14.33
2019-04-16T18:53:44.175Z,14.29
2019-04-16T18:56:14.646Z,14.27
2019-04-16T18:58:45.254Z,14.24
2019-04-16T19:01:24.683Z,14.18
2019-04-16T19:03:53.219Z,14.13
2019-04-16T19:06:23.732Z,14.03
2019-04-16T19:08:54.440Z,13.90
2019-04-16T19:11:24.851Z,13.83
2019-04-16T19:13:55.329Z,13.80
2019-04-16T19:16:25.798Z,13.78
2019-04-16T19:18:56.217Z,13.67
2019-04-16T19:21:26.713Z,13.58
2019-04-16T19:23:57.169Z,13.47
2019-04-16T19:26:30.221Z,13.28
2019-04-16T19:28:59.821Z,13.10
2019-04-16T19:31:30.192Z,13.13
2019-04-16T19:34:00.504Z,13.07
2019-04-16T19:36:30.974Z,12.93
2019-04-16T19:39:05.137Z,12.76
2019-04-16T19:41:33.597Z,12.60
2019-04-16T19:44:07.182Z,12.43
2019-04-16T19:46:36.210Z,12.35
2019-04-16T19:49:06.689Z,12.25
2019-04-16T19:51:38.081Z,12.17
2019-04-16T19:54:09.458Z,12.05
2019-04-16T19:56:39.810Z,11.90
2019-04-16T19:59:10.331Z,11.80
2019-04-16T20:01:40.765Z,11.70
2019-04-16T20:04:11.322Z,11.66
2019-04-16T20:06:41.700Z,11.63
2019-04-16T20:09:12.099Z,11.56
2019-04-16T20:11:42.514Z,11.41
2019-04-16T20:14:12.938Z,11.35
2019-04-16T20:16:43.411Z,11.34
2019-04-16T20:19:13.885Z,11.21
2019-04-16T20:21:44.326Z,11.16
2019-04-16T20:24:14.690Z,11.13
2019-04-16T20:26:45.118Z,10.98
2019-04-16T20:29:15.414Z,10.95
2019-04-16T20:31:45.943Z,10.91
2019-04-16T20:34:18.107Z,10.93
2019-04-16T20:36:48.498Z,10.88
2019-04-16T20:39:19.006Z,10.80
2019-04-16T20:41:52.976Z,10.85
2019-04-16T20:44:22.113Z,10.89
2019-04-16T20:46:52.487Z,10.79
2019-04-16T20:49:22.872Z,10.74
2019-04-16T20:51:56.604Z,10.56
2019-04-16T20:54:25.416Z,10.43
2019-04-16T20:56:55.808Z,10.34
2019-04-16T20:59:26.249Z,10.36
2019-04-16T21:01:56.734Z,10.26
2019-04-16T21:04:27.204Z,10.07
2019-04-16T21:06:57.833Z,10.00
2019-04-16T21:09:29.890Z,10.03
2019-04-16T21:12:00.510Z,10.12
2019-04-16T21:14:30.940Z,10.08
2019-04-16T21:17:05.988Z,9.92
2019-04-16T21:19:47.603Z,9.86
2019-04-16T21:22:19.900Z,9.83
2019-04-16T21:24:50.481Z,9.81
2019-04-16T21:27:20.919Z,9.77
2019-04-16T21:29:51.310Z,9.82
2019-04-16T21:32:39.662Z,9.88
2019-04-16T21:35:18.253Z,9.92
2019-04-16T21:38:22.770Z,9.86
2019-04-16T21:40:56.374Z,9.90
2019-04-16T21:43:25.384Z,10.00
2019-04-16T21:45:55.791Z,10.09
2019-04-16T21:48:27.010Z,10.32
2019-04-16T21:50:58.183Z,10.52
2019-04-16T21:53:28.857Z,10.74
2019-04-16T21:55:59.384Z,10.87
2019-04-16T21:58:29.816Z,10.89
2019-04-16T22:01:12.438Z,10.96
2019-04-16T22:03:44.233Z,11.03
2019-04-16T22:06:19.915Z,11.05
2019-04-16T22:08:46.916Z,11.10
2019-04-16T22:11:17.369Z,11.13
2019-04-16T22:13:50.595Z,11.14
2019-04-16T22:16:20.043Z,11.14
2019-04-16T22:18:50.490Z,11.21
2019-04-16T22:21:20.939Z,11.23
2019-04-16T22:23:51.408Z,11.15
2019-04-16T22:26:21.838Z,11.14
2019-04-16T22:28:52.239Z,11.10
2019-04-16T22:31:23.746Z,11.03
2019-04-16T22:33:54.791Z,11.00
2019-04-16T22:36:25.208Z,10.94
2019-04-16T22:39:01.406Z,10.92
2019-04-16T22:41:47.272Z,10.88
2019-04-16T22:44:36.490Z,10.80
2019-04-16T22:47:13.157Z,10.76
2019-04-16T22:49:43.682Z,10.71
2019-04-16T22:52:14.139Z,10.70
2019-04-16T22:54:44.593Z,10.61
2019-04-16T22:57:16.292Z,10.65
2019-04-16T22:59:46.670Z,10.61
2019-04-16T23:02:23.251Z,10.56
2019-04-16T23:04:54.755Z,10.52
2019-04-16T23:07:26.006Z,10.47
2019-04-16T23:09:56.481Z,10.39
2019-04-16T23:12:28.138Z,10.32
2019-04-16T23:14:58.980Z,10.34
2019-04-16T23:17:29.404Z,10.37
2019-04-16T23:19:59.853Z,10.37
2019-04-16T23:22:31.247Z,10.38
2019-04-16T23:25:01.787Z,10.35
2019-04-16T23:27:37.171Z,10.28
2019-04-16T23:30:05.114Z,10.26
2019-04-16T23:32:35.591Z,10.23
2019-04-16T23:35:09.807Z,10.21
2019-04-16T23:37:38.636Z,10.08
2019-04-16T23:40:11.107Z,10.06
2019-04-16T23:42:51.187Z,10.07
2019-04-16T23:45:49.663Z,10.07
2019-04-16T23:48:48.573Z,10.08
2019-04-16T23:51:30.584Z,10.03
2019-04-16T23:54:11.076Z,9.96
2019-04-16T23:56:49.681Z,9.97
2019-04-16T23:59:23.464Z,9.96
